createdAt,value
2019-04-21T00:03:30.232Z,51.20
2019-04-21T00:09:02.442Z,51.30
2019-04-21T00:13:42.644Z,51.60
2019-04-21T00:18:47.891Z,52.40
2019-04-21T00:24:01.264Z,52.90
2019-04-21T00:29:21.049Z,53.60
2019-04-21T00:34:50.370Z,53.90
2019-04-21T00:40:13.170Z,54.10
2019-04-21T00:45:09.780Z,55.00
2019-04-21T00:50:17.988Z,55.40
2019-04-21T01:00:32.341Z,56.20
2019-04-21T01:05:42.617Z,55.80
2019-04-21T01:10:36.052Z,56.40
2019-04-21T01:15:51.520Z,56.80
2019-04-21T01:20:32.202Z,57.20
2019-04-21T01:25:41.181Z,57.50
2019-04-21T01:31:03.740Z,57.30
2019-04-21T01:36:03.866Z,57.70
2019-04-21T01:41:12.988Z,57.90
2019-04-21T01:46:18.021Z,57.60
2019-04-21T01:51:18.075Z,58.20
2019-04-21T01:56:38.864Z,57.90
2019-04-21T02:01:49.281Z,58.80
2019-04-21T02:06:57.349Z,59.50
2019-04-21T02:12:04.521Z,59.60
2019-04-21T02:17:07.651Z,59.50
2019-04-21T02:22:00.884Z,59.80
2019-04-21T02:27:21.844Z,59.20
2019-04-21T02:32:35.688Z,59.70
2019-04-21T02:42:46.415Z,59.90
2019-04-21T02:48:03.962Z,60.10
2019-04-21T02:52:55.454Z,60.70
2019-04-21T02:58:06.170Z,60.50
2019-04-21T03:03:13.417Z,60.80
2019-04-21T03:23:36.351Z,61.30
2019-04-21T03:28:39.820Z,61.80
2019-04-21T03:34:21.317Z,61.50
2019-04-21T03:38:47.318Z,62.40
2019-04-21T03:43:59.221Z,61.90
2019-04-21T03:49:04.850Z,61.70
2019-04-21T03:54:00.010Z,61.90
2019-04-21T03:59:07.392Z,62.10
2019-04-21T04:04:30.279Z,62.00
2019-04-21T04:09:37.477Z,62.20
2019-04-21T04:14:40.453Z,62.80
2019-04-21T04:19:39.328Z,62.70
2019-04-21T04:29:56.418Z,62.30
2019-04-21T04:34:59.530Z,63.30
2019-04-21T04:40:10.766Z,63.60
2019-04-21T04:50:08.212Z,63.20
2019-04-21T04:55:26.120Z,64.00
2019-04-21T05:06:34.833Z,63.90
2019-04-21T05:11:43.260Z,63.70
2019-04-21T05:21:44.729Z,63.30
2019-04-21T05:26:33.395Z,63.90
2019-04-21T05:32:04.608Z,64.60
2019-04-21T05:37:07.185Z,64.60
2019-04-21T05:41:58.873Z,64.70
2019-04-21T05:52:21.058Z,65.70
2019-04-21T05:57:32.068Z,65.00
2019-04-21T06:02:39.984Z,65.00
2019-04-21T06:07:41.064Z,65.10
2019-04-21T06:12:50.417Z,65.30
2019-04-21T06:17:59.315Z,65.30
2019-04-21T06:23:00.711Z,65.80
2019-04-21T06:28:03.568Z,65.20
2019-04-21T06:32:59.405Z,65.50
2019-04-21T06:38:21.896Z,64.50
2019-04-21T06:48:32.944Z,62.60
2019-04-21T06:53:44.837Z,62.40
2019-04-21T06:58:48.081Z,61.40
2019-04-21T07:04:30.810Z,61.40
2019-04-21T07:10:04.871Z,59.70
2019-04-21T07:48:38.110Z,51.70
2019-04-21T07:59:31.575Z,50.90
2019-04-21T08:04:55.848Z,48.90
2019-04-21T08:15:58.231Z,46.90
2019-04-21T08:26:19.131Z,46.80
2019-04-21T08:31:32.465Z,43.80
2019-04-21T08:36:34.028Z,44.20
2019-04-21T08:47:15.851Z,42.20
2019-04-21T08:57:46.503Z,39.70
2019-04-21T09:07:49.336Z,39.40
2019-04-21T09:12:49.046Z,38.80
2019-04-21T09:17:44.728Z,37.90
2019-04-21T09:23:05.262Z,38.20
2019-04-21T09:28:36.986Z,37.10
2019-04-21T09:33:48.422Z,36.40
2019-04-21T09:39:00.072Z,35.80
2019-04-21T09:44:02.808Z,35.80
2019-04-21T09:49:12.163Z,36.50
2019-04-21T09:54:20.488Z,36.10
2019-04-21T09:59:26.133Z,34.90
2019-04-21T10:04:23.232Z,34.40
2019-04-21T10:09:39.635Z,35.30
2019-04-21T10:15:24.903Z,35.60
2019-04-21T10:20:28.594Z,33.50
2019-04-21T10:25:58.697Z,32.00
2019-04-21T10:31:06.746Z,32.50
2019-04-21T10:36:11.421Z,29.70
2019-04-21T10:41:15.138Z,30.30
2019-04-21T10:46:22.387Z,30.00
2019-04-21T10:51:26.337Z,30.80
2019-04-21T10:56:35.069Z,29.90
2019-04-21T11:01:35.278Z,31.20
2019-04-21T11:06:38.887Z,30.60
2019-04-21T11:11:44.994Z,30.80
2019-04-21T11:16:49.773Z,30.10
2019-04-21T11:21:54.681Z,29.80
2019-04-21T11:26:58.266Z,29.10
2019-04-21T11:32:03.048Z,29.20
2019-04-21T11:37:10.228Z,30.20
2019-04-21T11:42:17.470Z,29.60
2019-04-21T11:47:30.261Z,30.10
2019-04-21T11:52:34.720Z,29.50
2019-04-21T11:57:42.808Z,28.20
2019-04-21T12:02:45.709Z,29.30
2019-04-21T12:07:49.417Z,29.60
2019-04-21T12:12:53.209Z,29.50
2019-04-21T12:17:57.544Z,29.40
2019-04-21T12:23:02.408Z,29.60
2019-04-21T12:28:10.041Z,28.30
2019-04-21T12:33:32.094Z,28.80
2019-04-21T12:38:44.255Z,29.10
2019-04-21T12:43:42.991Z,28.00
2019-04-21T12:48:46.877Z,27.30
2019-04-21T12:53:51.783Z,28.20
2019-04-21T12:58:55.456Z,30.00
2019-04-21T13:03:59.657Z,28.00
2019-04-21T13:09:08.334Z,28.30
2019-04-21T13:14:09.007Z,29.00
2019-04-21T13:19:13.351Z,28.60
2019-04-21T13:24:17.749Z,28.40
2019-04-21T13:29:21.373Z,28.80
2019-04-21T13:34:42.274Z,28.00
2019-04-21T13:40:13.176Z,28.20
2019-04-21T13:45:00.949Z,27.10
2019-04-21T13:50:06.337Z,28.30
2019-04-21T13:55:09.913Z,28.20
2019-04-21T14:00:15.149Z,27.10
2019-04-21T14:05:20.301Z,27.50
2019-04-21T14:10:25.850Z,27.80
2019-04-21T14:15:30.382Z,28.40
2019-04-21T14:20:35.172Z,27.00
2019-04-21T14:25:39.581Z,27.60
2019-04-21T14:30:44.190Z,27.60
2019-04-21T14:35:47.934Z,26.70
2019-04-21T14:40:52.432Z,27.30
2019-04-21T14:45:58.618Z,27.10
2019-04-21T14:51:07.052Z,26.80
2019-04-21T14:56:11.135Z,25.40
2019-04-21T15:01:15.800Z,26.10
2019-04-21T15:06:19.294Z,26.70
2019-04-21T15:11:24.138Z,26.30
2019-04-21T15:16:29.174Z,25.20
2019-04-21T15:21:33.429Z,24.60
2019-04-21T15:26:38.022Z,25.80
2019-04-21T15:31:44.607Z,25.80
2019-04-21T15:36:50.326Z,24.30
2019-04-21T15:41:54.647Z,25.30
2019-04-21T15:46:59.720Z,24.90
2019-04-21T15:52:04.189Z,24.40
2019-04-21T15:57:08.982Z,25.40
2019-04-21T16:02:26.555Z,24.40
2019-04-21T16:07:30.201Z,24.80
2019-04-21T16:12:33.965Z,22.50
2019-04-21T16:17:39.271Z,22.20
2019-04-21T16:22:44.411Z,21.80
2019-04-21T16:27:48.076Z,22.60
2019-04-21T16:32:52.232Z,22.50
2019-04-21T16:37:58.741Z,24.50
2019-04-21T16:43:01.209Z,23.10
2019-04-21T16:48:05.340Z,23.50
2019-04-21T16:53:16.567Z,23.60
2019-04-21T16:58:36.814Z,24.10
2019-04-21T17:03:40.240Z,24.80
2019-04-21T17:08:44.921Z,24.50
2019-04-21T17:13:49.989Z,24.50
2019-04-21T17:19:03.079Z,24.80
2019-04-21T17:23:59.086Z,25.30
2019-04-21T17:29:02.809Z,25.30
2019-04-21T17:34:12.332Z,25.40
2019-04-21T17:39:13.148Z,26.20
2019-04-21T17:44:17.179Z,26.10
2019-04-21T17:49:21.183Z,25.40
2019-04-21T17:54:35.653Z,25.00
2019-04-21T18:05:03.734Z,26.00
2019-04-21T18:10:15.642Z,26.10
2019-04-21T18:15:02.499Z,26.10
2019-04-21T18:19:57.345Z,27.70
2019-04-21T18:25:07.031Z,27.40
2019-04-21T18:30:31.959Z,29.00
2019-04-21T18:35:46.400Z,29.10
2019-04-21T18:40:52.364Z,30.00
2019-04-21T18:46:24.203Z,31.10
2019-04-21T18:51:15.817Z,31.00
2019-04-21T18:56:18.650Z,32.30
2019-04-21T19:01:27.536Z,33.50
2019-04-21T19:06:45.861Z,34.10
2019-04-21T19:11:53.440Z,34.70
2019-04-21T19:17:04.457Z,35.90
2019-04-21T19:22:04.929Z,36.00
2019-04-21T19:27:11.716Z,35.90
2019-04-21T19:32:13.843Z,38.20
2019-04-21T19:37:06.087Z,38.50
2019-04-21T19:42:18.519Z,39.50
2019-04-21T19:47:36.739Z,39.30
2019-04-21T19:52:30.973Z,40.20
2019-04-21T19:57:22.944Z,40.60
2019-04-21T20:02:26.806Z,40.60
2019-04-21T20:07:43.880Z,41.30
2019-04-21T20:12:57.025Z,41.70
2019-04-21T20:17:54.071Z,42.20
2019-04-21T20:22:50.328Z,43.00
2019-04-21T20:28:00.712Z,43.50
2019-04-21T20:33:35.465Z,44.40
2019-04-21T20:38:17.628Z,44.50
2019-04-21T20:43:27.208Z,44.90
2019-04-21T20:48:23.765Z,45.70
2019-04-21T20:53:35.868Z,45.50
2019-04-21T20:58:40.852Z,45.60
2019-04-21T21:03:58.055Z,46.00
2019-04-21T21:08:52.718Z,46.80
2019-04-21T21:14:01.927Z,46.20
2019-04-21T21:19:21.682Z,46.20
2019-04-21T21:24:09.698Z,47.80
2019-04-21T21:29:18.431Z,47.90
2019-04-21T21:34:25.723Z,47.90
2019-04-21T21:39:25.010Z,48.00
2019-04-21T21:44:19.715Z,48.40
2019-04-21T21:49:35.486Z,47.80
2019-04-21T21:54:25.580Z,47.70
2019-04-21T21:59:31.812Z,48.40
2019-04-21T22:04:37.479Z,48.20
2019-04-21T22:09:40.371Z,48.40
2019-04-21T22:14:48.407Z,49.00
2019-04-21T22:20:12.245Z,49.10
2019-04-21T22:25:04.801Z,49.50
2019-04-21T22:30:03.352Z,50.00
2019-04-21T22:35:16.391Z,50.50
2019-04-21T22:40:29.143Z,50.60
2019-04-21T22:45:23.257Z,50.40
2019-04-21T22:50:30.858Z,50.30
